Time;durP1;ratioP1;P1;durP2;ratioP2;P2;SDS_P1;SDS_P2;PMS_P1;PMS_P2;Temp;Humidity;BMP_temperature;BMP_pressure;BME280_temperature;BME280_humidity;BME280_pressure;Samples;Min_cycle;Max_cycle;Signal;HPM_P1;HPM_P2
2022/05/31 00:01:53;;;;;;;;;15.00;14.00;;;;;22.19;46.41;100717.30;110326;1264;19179;-48
2022/05/31 00:04:20;;;;;;;;;14.00;14.00;;;;;22.19;46.53;100717.89;110281;1264;24367;-47
2022/05/31 00:06:47;;;;;;;;;13.00;13.00;;;;;22.20;46.47;100716.50;110306;1264;20327;-47
2022/05/31 00:09:14;;;;;;;;;12.00;10.67;;;;;22.19;46.52;100719.86;110253;1263;19290;-48
2022/05/31 00:11:42;;;;;;;;;13.00;13.00;;;;;22.19;46.43;100721.84;110281;1262;19545;-46
2022/05/31 00:14:09;;;;;;;;;13.00;12.00;;;;;22.20;46.34;100719.95;110299;1264;23240;-46
2022/05/31 00:16:36;;;;;;;;;12.33;12.00;;;;;22.19;46.34;100718.60;110262;1264;19268;-47
2022/05/31 00:19:03;;;;;;;;;12.67;12.67;;;;;22.19;46.49;100718.22;110259;1264;23196;-46
2022/05/31 00:21:30;;;;;;;;;12.00;12.00;;;;;22.20;46.36;100722.35;110279;1263;20452;-46
2022/05/31 00:23:58;;;;;;;;;12.00;12.00;;;;;22.19;46.30;100722.97;110273;1264;19465;-47
2022/05/31 00:26:25;;;;;;;;;16.50;16.00;;;;;22.19;46.45;100730.45;110274;1263;19532;-48
2022/05/31 00:28:52;;;;;;;;;13.00;13.00;;;;;22.18;46.65;100733.63;110297;1264;23122;-46
2022/05/31 00:31:19;;;;;;;;;13.67;12.67;;;;;22.17;46.63;100731.11;110256;1262;19338;-46
2022/05/31 00:33:46;;;;;;;;;16.67;12.33;;;;;22.17;46.61;100732.59;110290;1264;19677;-46
2022/05/31 00:36:14;;;;;;;;;16.00;13.00;;;;;22.17;46.43;100731.16;110259;1264;21925;-46
2022/05/31 00:38:42;;;;;;;;;13.67;13.00;;;;;22.17;46.51;100731.94;110268;1264;19100;-43
2022/05/31 00:41:23;;;;;;;;;14.00;14.00;;;;;22.16;46.44;100727.70;110287;1263;23467;-46
2022/05/31 00:43:50;;;;;;;;;13.00;13.00;;;;;22.16;46.40;100730.80;110303;1263;20482;-44
2022/05/31 00:46:17;;;;;;;;;12.00;12.00;;;;;22.15;46.63;100730.33;110277;1263;19291;-46
2022/05/31 00:48:45;;;;;;;;;14.00;14.00;;;;;22.15;46.58;100731.25;110257;1263;23014;-47
2022/05/31 00:51:12;;;;;;;;;13.00;12.00;;;;;22.15;46.34;100734.77;110300;1264;21143;-48
2022/05/31 00:53:40;;;;;;;;;14.00;13.33;;;;;22.14;46.60;100737.17;110240;1264;19239;-47
2022/05/31 00:56:07;;;;;;;;;14.00;13.00;;;;;22.14;46.37;100743.00;110258;1264;21295;-47
2022/05/31 00:58:35;;;;;;;;;13.00;12.00;;;;;22.14;46.44;100739.38;110266;1262;21717;-47
2022/05/31 01:01:02;;;;;;;;;12.33;12.33;;;;;22.15;46.44;100740.49;110271;1263;22869;-48
2022/05/31 01:03:29;;;;;;;;;13.50;12.50;;;;;22.14;46.43;100741.70;110284;1264;19436;-49
2022/05/31 01:05:56;;;;;;;;;13.67;13.00;;;;;22.14;46.57;100744.05;110298;1264;22796;-47
2022/05/31 01:08:23;;;;;;;;;13.00;12.67;;;;;22.15;46.59;100741.88;110264;1264;19453;-46
2022/05/31 01:10:51;;;;;;;;;13.00;12.00;;;;;22.14;46.49;100744.44;110248;1264;19703;-47
2022/05/31 01:13:18;;;;;;;;;12.00;12.00;;;;;22.15;46.45;100744.73;110277;1264;20620;-46
2022/05/31 01:15:45;;;;;;;;;14.00;12.00;;;;;22.15;46.38;100744.88;110256;1264;21327;-50
2022/05/31 01:18:12;;;;;;;;;12.50;11.00;;;;;22.14;46.42;100747.16;110301;1264;19645;-46
2022/05/31 01:20:40;;;;;;;;;13.00;11.33;;;;;22.14;46.39;100745.52;110284;1262;23312;-47
2022/05/31 01:23:07;;;;;;;;;9.00;9.00;;;;;22.14;46.52;100746.11;110316;1262;19401;-47
2022/05/31 01:25:34;;;;;;;;;14.00;13.00;;;;;22.13;46.37;100748.41;110282;1262;20874;-48
2022/05/31 01:28:01;;;;;;;;;16.50;12.50;;;;;22.14;46.52;100750.06;110287;1262;20409;-48
2022/05/31 01:30:28;;;;;;;;;13.00;12.00;;;;;22.15;46.46;100754.05;110266;1261;19824;-48
2022/05/31 01:32:56;;;;;;;;;14.67;10.00;;;;;22.13;46.32;100759.46;110238;1264;19850;-46
2022/05/31 01:35:23;;;;;;;;;12.00;12.00;;;;;22.12;46.34;100757.19;110259;1263;23071;-46
2022/05/31 01:37:50;;;;;;;;;12.33;12.00;;;;;22.12;46.41;100758.66;110264;1264;19301;-46
2022/05/31 01:40:17;;;;;;;;;14.00;14.00;;;;;22.13;46.41;100759.84;110230;1263;22752;-45
2022/05/31 01:42:44;;;;;;;;;13.67;12.67;;;;;22.13;46.44;100764.04;110267;1263;21796;-43
2022/05/31 01:45:12;;;;;;;;;12.67;12.67;;;;;22.12;46.38;100763.25;110260;1264;19176;-49
2022/05/31 01:47:39;;;;;;;;;12.00;11.00;;;;;22.12;46.30;100758.71;110296;1262;19520;-46
2022/05/31 01:50:06;;;;;;;;;10.00;10.00;;;;;22.11;46.29;100766.23;110314;1264;23246;-47
2022/05/31 01:52:33;;;;;;;;;12.00;12.00;;;;;22.11;46.41;100772.23;110277;1264;19263;-47
2022/05/31 01:55:01;;;;;;;;;12.00;11.33;;;;;22.11;46.40;100771.75;110288;1263;21873;-47
2022/05/31 01:57:28;;;;;;;;;12.67;10.67;;;;;22.10;46.39;100777.09;110290;1264;20556;-46
2022/05/31 01:59:56;;;;;;;;;11.33;10.00;;;;;22.11;46.45;100779.44;110287;1263;19224;-48
2022/05/31 02:02:23;;;;;;;;;9.50;9.50;;;;;22.10;46.33;100779.55;110296;1263;19831;-46
2022/05/31 02:04:51;;;;;;;;;13.67;13.00;;;;;22.10;46.47;100778.24;110306;1264;20718;-47
2022/05/31 02:07:18;;;;;;;;;12.00;12.00;;;;;22.10;46.29;100773.67;110283;1262;22878;-49
2022/05/31 02:09:45;;;;;;;;;10.00;10.00;;;;;22.10;46.18;100776.03;110270;1264;19702;-47
2022/05/31 02:12:12;;;;;;;;;12.00;11.33;;;;;22.09;46.39;100780.10;110254;1264;20365;-48
2022/05/31 02:14:40;;;;;;;;;13.00;11.00;;;;;22.10;46.38;100784.80;110314;1264;19183;-47
2022/05/31 02:17:07;;;;;;;;;12.00;10.00;;;;;22.10;46.31;100788.03;110308;1264;22775;-47
2022/05/31 02:19:34;;;;;;;;;13.00;12.00;;;;;22.09;46.32;100787.02;110262;1264;20341;-48
2022/05/31 02:22:01;;;;;;;;;10.00;10.00;;;;;22.10;46.12;100788.81;110270;1264;19450;-48
2022/05/31 02:24:28;;;;;;;;;13.00;13.00;;;;;22.10;46.41;100791.52;110288;1264;19775;-47
2022/05/31 02:26:56;;;;;;;;;12.00;10.67;;;;;22.10;46.28;100784.83;110261;1262;21459;-49
2022/05/31 02:29:23;;;;;;;;;10.00;10.00;;;;;22.09;46.23;100787.55;110267;1264;19263;-48
2022/05/31 02:31:50;;;;;;;;;12.00;12.00;;;;;22.09;46.24;100783.36;110302;1263;23165;-47
2022/05/31 02:34:17;;;;;;;;;12.33;12.00;;;;;22.10;46.09;100787.48;110270;1264;20406;-48
2022/05/31 02:36:45;;;;;;;;;12.33;12.33;;;;;22.09;46.23;100785.17;110295;1263;20299;-51
2022/05/31 02:39:12;;;;;;;;;12.67;12.67;;;;;22.10;46.21;100786.39;110271;1263;19710;-48
2022/05/31 02:41:39;;;;;;;;;10.00;9.00;;;;;22.09;46.11;100788.34;110271;1264;20408;-47
2022/05/31 02:44:07;;;;;;;;;10.00;10.00;;;;;22.10;46.16;100796.77;110233;1262;19268;-47
2022/05/31 02:46:34;;;;;;;;;12.00;10.00;;;;;22.10;46.12;100793.70;110257;1262;19627;-50
2022/05/31 02:49:01;;;;;;;;;10.00;10.00;;;;;22.11;46.21;100795.23;110278;1264;23171;-48
2022/05/31 02:51:28;;;;;;;;;12.67;12.33;;;;;22.10;46.20;100792.44;110296;1262;19297;-47
2022/05/31 02:53:55;;;;;;;;;12.00;12.00;;;;;22.10;46.11;100800.09;110275;1264;23841;-48
2022/05/31 02:56:23;;;;;;;;;9.67;9.67;;;;;22.09;45.98;100804.92;110234;1264;21754;-46
2022/05/31 02:58:50;;;;;;;;;10.00;10.00;;;;;22.08;46.31;100806.27;110271;1264;23737;-45
2022/05/31 03:01:17;;;;;;;;;12.00;10.00;;;;;22.09;46.21;100805.26;110104;1264;19686;-46
2022/05/31 03:03:44;;;;;;;;;12.00;12.00;;;;;22.09;46.11;100811.48;110285;1264;23593;-46
2022/05/31 03:06:11;;;;;;;;;12.67;12.67;;;;;22.08;46.07;100814.48;110299;1264;23075;-46
2022/05/31 03:08:39;;;;;;;;;16.50;12.00;;;;;22.08;46.03;100815.52;110284;1264;19542;-47
2022/05/31 03:11:06;;;;;;;;;12.33;10.67;;;;;22.08;45.94;100820.86;110280;1264;23238;-46
2022/05/31 03:13:33;;;;;;;;;10.00;9.67;;;;;22.08;46.05;100818.89;110273;1264;19204;-45
2022/05/31 03:16:01;;;;;;;;;12.00;12.00;;;;;22.08;46.15;100816.80;110276;1263;19635;-49
2022/05/31 03:18:28;;;;;;;;;13.00;12.00;;;;;22.07;46.17;100820.93;110236;1264;20370;-43
2022/05/31 03:20:55;;;;;;;;;12.50;12.50;;;;;22.07;45.99;100822.40;110214;1264;19297;-46
2022/05/31 03:23:22;;;;;;;;;12.00;12.00;;;;;22.08;46.06;100825.27;110260;1262;19606;-46
2022/05/31 03:25:49;;;;;;;;;12.00;12.00;;;;;22.09;46.18;100829.87;110144;1264;20512;-45
2022/05/31 03:28:17;;;;;;;;;12.00;10.00;;;;;22.08;45.85;100833.92;110210;1264;24711;-48
2022/05/31 03:30:44;;;;;;;;;12.00;12.00;;;;;22.08;46.01;100839.55;110300;1264;19525;-48
2022/05/31 03:33:11;;;;;;;;;11.33;10.00;;;;;22.08;45.97;100834.80;110267;1264;21632;-44
2022/05/31 03:35:38;;;;;;;;;10.67;10.67;;;;;22.08;46.19;100833.80;110265;1264;19281;-47
2022/05/31 03:38:06;;;;;;;;;12.50;11.00;;;;;22.08;46.08;100835.02;110330;1264;19826;-47
2022/05/31 03:43:18;;;;;;;;;12.00;12.00;;;;;22.08;46.01;100832.27;110287;1263;23720;-48
2022/05/31 03:45:45;;;;;;;;;13.00;10.00;;;;;22.08;45.98;100831.16;110265;1264;19520;-47
2022/05/31 03:48:12;;;;;;;;;12.33;10.00;;;;;22.09;45.94;100834.23;110285;1263;20615;-48
2022/05/31 03:50:40;;;;;;;;;12.00;10.00;;;;;22.08;45.95;100838.10;110291;1264;19945;-47
2022/05/31 03:53:07;;;;;;;;;12.00;12.00;;;;;22.10;45.84;100836.11;110244;1264;20275;-49
2022/05/31 03:55:34;;;;;;;;;13.00;10.00;;;;;22.09;45.78;100838.91;110274;1264;20680;-49
2022/05/31 03:58:01;;;;;;;;;13.00;12.00;;;;;22.09;45.71;100839.80;110267;1262;19214;-46
2022/05/31 04:00:29;;;;;;;;;11.67;10.00;;;;;22.10;45.88;100842.09;110295;1264;19749;-47
2022/05/31 04:02:56;;;;;;;;;12.00;10.67;;;;;22.10;46.07;100838.64;110275;1264;23620;-47
2022/05/31 04:05:23;;;;;;;;;11.00;11.00;;;;;22.09;45.98;100839.80;110306;1263;20124;-47
2022/05/31 04:07:51;;;;;;;;;10.00;9.00;;;;;22.09;45.83;100841.45;110304;1264;19864;-49
2022/05/31 04:10:18;;;;;;;;;10.67;10.67;;;;;22.10;45.90;100849.56;110287;1264;21102;-48
2022/05/31 04:12:45;;;;;;;;;12.00;12.00;;;;;22.09;45.90;100852.53;110292;1264;19267;-47
2022/05/31 04:15:12;;;;;;;;;8.50;8.50;;;;;22.10;45.87;100855.94;110258;1264;19680;-47
2022/05/31 04:17:40;;;;;;;;;9.00;9.00;;;;;22.09;45.74;100858.57;110345;1262;20335;-47
2022/05/31 04:20:07;;;;;;;;;10.00;10.00;;;;;22.10;45.80;100858.39;110310;1264;19318;-48
2022/05/31 04:22:34;;;;;;;;;10.00;9.33;;;;;22.12;45.84;100859.00;110246;1264;19622;-48
2022/05/31 04:25:02;;;;;;;;;10.00;10.00;;;;;22.11;45.80;100860.20;110300;1263;21733;-47
2022/05/31 04:27:29;;;;;;;;;12.00;10.00;;;;;22.10;45.94;100853.13;110276;1264;19493;-47
2022/05/31 04:29:56;;;;;;;;;10.00;9.00;;;;;22.10;45.80;100849.18;110270;1264;19705;-48
2022/05/31 04:32:23;;;;;;;;;10.67;10.00;;;;;22.09;45.91;100848.26;110281;1262;20343;-47
2022/05/31 04:34:52;;;;;;;;;10.67;9.67;;;;;22.09;46.04;100853.09;110236;1263;19194;-46
2022/05/31 04:37:19;;;;;;;;;10.00;9.67;;;;;22.10;45.84;100856.45;110291;1263;19704;-47
2022/05/31 04:39:46;;;;;;;;;10.67;10.67;;;;;22.10;45.84;100854.60;110290;1264;22130;-47
2022/05/31 04:42:13;;;;;;;;;10.00;10.00;;;;;22.11;45.72;100861.77;110246;1264;19504;-48
2022/05/31 04:44:40;;;;;;;;;12.00;10.00;;;;;22.12;45.74;100856.41;110292;1263;22852;-46
2022/05/31 04:47:08;;;;;;;;;12.00;12.00;;;;;22.12;45.81;100856.07;110306;1264;23148;-46
2022/05/31 04:49:35;;;;;;;;;10.00;10.00;;;;;22.12;45.91;100859.92;110284;1264;23318;-46
2022/05/31 04:52:02;;;;;;;;;10.00;10.00;;;;;22.12;45.89;100860.09;110252;1264;19842;-48
2022/05/31 04:54:30;;;;;;;;;9.67;9.00;;;;;22.13;45.60;100855.41;110247;1263;23621;-52
2022/05/31 04:56:59;;;;;;;;;14.67;12.67;;;;;22.13;45.85;100855.55;110284;1262;19278;-48
2022/05/31 04:59:27;;;;;;;;;10.00;10.00;;;;;22.19;45.96;100849.60;110267;1264;19839;-48
2022/05/31 05:01:54;;;;;;;;;11.67;10.67;;;;;22.26;46.36;100850.90;110287;1264;20608;-48
2022/05/31 05:04:21;;;;;;;;;10.00;10.00;;;;;22.31;46.94;100851.95;110213;1263;19197;-49
2022/05/31 05:06:48;;;;;;;;;9.00;8.00;;;;;22.31;47.31;100854.30;110223;1264;19806;-48
2022/05/31 05:09:16;;;;;;;;;12.00;10.00;;;;;22.29;47.56;100856.74;110256;1264;20255;-48
2022/05/31 05:11:45;;;;;;;;;10.00;10.00;;;;;22.30;47.57;100857.52;110252;1263;21024;-47
2022/05/31 05:14:12;;;;;;;;;9.33;9.33;;;;;22.32;47.58;100856.42;110260;1264;19550;-50
2022/05/31 05:16:39;;;;;;;;;10.00;10.00;;;;;22.39;47.67;100855.53;110246;1262;22922;-47
2022/05/31 05:19:06;;;;;;;;;9.33;9.33;;;;;22.45;47.68;100855.74;110173;1264;23733;-48
2022/05/31 05:21:34;;;;;;;;;10.00;10.00;;;;;22.50;47.99;100858.13;110188;1264;20187;-48
2022/05/31 05:24:01;;;;;;;;;9.67;9.33;;;;;22.52;47.93;100861.19;110214;1264;20441;-47
2022/05/31 05:26:28;;;;;;;;;11.33;11.33;;;;;22.52;47.84;100859.94;110226;1264;19315;-48
2022/05/31 05:31:42;;;;;;;;;10.67;10.67;;;;;22.52;47.91;100864.86;110244;1263;20209;-47
2022/05/31 05:34:09;;;;;;;;;11.33;10.00;;;;;22.52;47.68;100863.46;110210;1264;19342;-50
2022/05/31 05:36:36;;;;;;;;;10.67;10.00;;;;;22.50;47.98;100867.47;110219;1264;19494;-48
2022/05/31 05:39:10;;;;;;;;;10.00;9.00;;;;;22.50;48.08;100874.27;110200;1264;21025;-47
2022/05/31 05:41:37;;;;;;;;;12.00;12.00;;;;;22.46;48.05;100870.54;110019;1264;248519;-47
2022/05/31 05:44:04;;;;;;;;;11.33;10.00;;;;;22.46;48.21;100870.79;110206;1263;23046;-49
2022/05/31 05:46:31;;;;;;;;;47.67;41.00;;;;;22.48;48.36;100871.08;110138;1262;20358;-48
2022/05/31 05:48:58;;;;;;;;;52.00;42.00;;;;;22.49;48.19;100872.37;110187;1262;23183;-48
2022/05/31 05:51:26;;;;;;;;;43.00;33.00;;;;;22.49;48.25;100873.13;110192;1262;19534;-49
2022/05/31 05:53:53;;;;;;;;;101.00;74.50;;;;;22.48;48.29;100871.18;110049;1262;19971;-46
2022/05/31 05:56:20;;;;;;;;;89.00;63.67;;;;;22.50;48.32;100872.98;110268;1262;18989;-50
2022/05/31 05:58:47;;;;;;;;;83.00;58.33;;;;;22.54;48.33;100869.73;110169;1262;21637;-49
2022/05/31 06:01:15;;;;;;;;;73.67;54.00;;;;;22.58;48.24;100875.96;110133;1262;20602;-45
2022/05/31 06:03:42;;;;;;;;;71.67;53.00;;;;;22.60;48.26;100878.45;110135;1262;23707;-48
2022/05/31 06:06:09;;;;;;;;;53.33;45.00;;;;;22.63;48.39;100876.59;110150;1262;19702;-48
2022/05/31 06:08:36;;;;;;;;;56.50;44.00;;;;;22.69;48.22;100878.56;110212;1262;21263;-48
2022/05/31 06:11:03;;;;;;;;;61.67;47.00;;;;;22.70;48.36;100879.42;110240;1264;19298;-45
2022/05/31 06:13:31;;;;;;;;;48.00;41.50;;;;;22.69;48.09;100876.92;110024;1264;27314;-48
2022/05/31 06:15:58;;;;;;;;;36.33;33.33;;;;;22.64;48.07;100876.69;110066;1264;20411;-48
2022/05/31 06:18:26;;;;;;;;;33.33;28.33;;;;;22.62;47.59;100880.95;110247;1264;19225;-48
2022/05/31 06:20:53;;;;;;;;;35.67;30.00;;;;;22.60;47.55;100882.55;110213;1263;19683;-47
2022/05/31 06:23:20;;;;;;;;;29.00;27.00;;;;;22.60;47.44;100881.80;110211;1263;20465;-48
2022/05/31 06:25:47;;;;;;;;;27.00;26.00;;;;;22.59;47.13;100887.37;110144;1264;19249;-47
2022/05/31 06:28:14;;;;;;;;;30.00;25.00;;;;;22.57;47.11;100889.02;110248;1263;19661;-48
2022/05/31 06:30:42;;;;;;;;;28.00;21.67;;;;;22.54;47.16;100887.59;110254;1263;20406;-48
2022/05/31 06:33:09;;;;;;;;;36.67;26.67;;;;;22.52;46.86;100887.36;110250;1264;19316;-49
2022/05/31 06:35:37;;;;;;;;;26.00;22.00;;;;;22.49;46.87;100890.09;110193;1263;19704;-44
2022/05/31 06:38:04;;;;;;;;;25.67;22.67;;;;;22.41;46.44;100893.41;110251;1263;20499;-49
2022/05/31 06:40:31;;;;;;;;;26.67;25.00;;;;;22.40;46.20;100895.27;110066;1264;19371;-46
2022/05/31 06:42:59;;;;;;;;;23.00;19.67;;;;;22.41;46.28;100891.69;110208;1262;20209;-46
2022/05/31 06:45:27;;;;;;;;;18.00;17.33;;;;;22.43;46.04;100889.46;110240;1263;20458;-49
2022/05/31 06:47:54;;;;;;;;;15.50;14.00;;;;;22.43;45.38;100889.71;110264;1263;19268;-48
2022/05/31 06:50:21;;;;;;;;;17.00;14.00;;;;;22.42;45.51;100888.04;110195;1264;21493;-48
2022/05/31 06:58:18;;;;;;;;;20.00;17.67;;;;;22.51;44.88;100888.36;110251;1263;19648;-47
2022/05/31 07:00:45;;;;;;;;;16.50;14.50;;;;;22.53;44.88;100884.76;110199;1264;24169;-48
2022/05/31 07:03:12;;;;;;;;;15.33;14.00;;;;;22.55;44.98;100888.90;110191;1264;19170;-48
2022/05/31 07:05:40;;;;;;;;;16.50;14.00;;;;;22.55;44.91;100888.56;110147;1264;24477;-49
2022/05/31 07:08:07;;;;;;;;;14.67;14.00;;;;;22.56;45.00;100886.40;110286;1264;20257;-47
2022/05/31 07:10:34;;;;;;;;;18.00;16.00;;;;;22.56;45.21;100887.90;110261;1264;19046;-48
2022/05/31 07:13:01;;;;;;;;;13.00;11.00;;;;;22.58;45.26;100885.34;110235;1264;21912;-48
2022/05/31 07:15:31;;;;;;;;;17.33;14.67;;;;;22.61;45.34;100886.98;110165;1264;23285;-47
2022/05/31 07:17:59;;;;;;;;;19.00;13.67;;;;;22.66;45.25;100886.34;110243;1262;19389;-47
2022/05/31 07:20:26;;;;;;;;;17.67;15.33;;;;;22.71;45.05;100891.17;110264;1264;19640;-49
2022/05/31 07:22:54;;;;;;;;;14.67;14.67;;;;;22.75;45.18;100888.73;110268;1263;21862;-46
2022/05/31 07:25:21;;;;;;;;;17.00;15.33;;;;;22.76;45.11;100890.77;110258;1263;19193;-47
2022/05/31 07:27:48;;;;;;;;;15.00;12.33;;;;;22.79;45.08;100893.14;110295;1264;19587;-52
2022/05/31 07:30:16;;;;;;;;;16.00;13.00;;;;;22.81;44.96;100892.54;110271;1264;20299;-51
2022/05/31 07:32:44;;;;;;;;;15.67;14.00;;;;;22.80;45.11;100896.48;110248;1264;19202;-47
2022/05/31 07:35:11;;;;;;;;;13.50;13.00;;;;;22.78;44.94;100897.13;110272;1264;20801;-48
2022/05/31 07:37:38;;;;;;;;;13.67;13.00;;;;;22.73;45.17;100896.79;110217;1264;20834;-47
2022/05/31 07:40:05;;;;;;;;;15.00;14.00;;;;;22.67;45.25;100892.16;110240;1264;19213;-47
2022/05/31 07:42:32;;;;;;;;;14.33;14.00;;;;;22.64;45.40;100894.03;110242;1264;19615;-48
2022/05/31 07:45:00;;;;;;;;;14.33;14.00;;;;;22.61;45.54;100896.70;110213;1264;20471;-46
2022/05/31 07:47:27;;;;;;;;;18.50;17.00;;;;;22.57;45.66;100903.13;110199;1262;19074;-47
2022/05/31 07:49:54;;;;;;;;;15.00;13.00;;;;;22.56;45.67;100909.00;110267;1264;19556;-49
2022/05/31 07:52:21;;;;;;;;;16.67;14.67;;;;;22.58;45.88;100906.22;110230;1264;23091;-48
2022/05/31 07:54:49;;;;;;;;;17.00;14.00;;;;;22.65;46.36;100905.61;110221;1263;19647;-48
2022/05/31 08:00:01;;;;;;;;;14.33;14.00;;;;;22.65;46.23;100908.69;110216;1264;22863;-49
2022/05/31 08:02:29;;;;;;;;;13.00;12.33;;;;;22.64;46.44;100911.83;110218;1262;19251;-47
2022/05/31 08:04:56;;;;;;;;;15.33;14.00;;;;;22.63;46.39;100910.66;110217;1264;20548;-47
2022/05/31 08:07:23;;;;;;;;;14.00;13.00;;;;;22.62;46.55;100911.23;110235;1264;23422;-49
2022/05/31 08:09:50;;;;;;;;;15.33;14.33;;;;;22.64;46.59;100914.23;110190;1264;19277;-47
2022/05/31 08:12:17;;;;;;;;;17.00;15.00;;;;;22.62;46.31;100911.23;110136;1264;20163;-48
2022/05/31 08:14:45;;;;;;;;;13.67;13.33;;;;;22.57;46.49;100912.67;110233;1264;20400;-48
2022/05/31 08:17:12;;;;;;;;;14.00;12.33;;;;;22.89;46.56;100913.26;110223;1264;19279;-46
2022/05/31 08:19:39;;;;;;;;;10.33;10.00;;;;;23.29;45.59;100911.82;110184;1264;19678;-48
2022/05/31 08:22:06;;;;;;;;;14.33;13.00;;;;;23.73;44.01;100913.59;110243;1264;20332;-49
2022/05/31 08:24:34;;;;;;;;;12.33;11.67;;;;;23.56;43.93;100915.02;110207;1263;19159;-48
2022/05/31 08:27:02;;;;;;;;;13.00;12.67;;;;;23.18;44.47;100913.72;110305;1263;19511;-48
2022/05/31 08:29:30;;;;;;;;;13.00;11.00;;;;;22.93;45.02;100913.33;110188;1264;23126;-44
2022/05/31 08:31:58;;;;;;;;;15.00;14.00;;;;;22.81;45.19;100916.02;110246;1264;19889;-47
2022/05/31 08:34:25;;;;;;;;;14.67;13.67;;;;;22.67;44.88;100917.58;110172;1262;20469;-48
2022/05/31 08:36:53;;;;;;;;;13.67;13.67;;;;;22.61;45.01;100920.64;110296;1262;21229;-49
2022/05/31 08:39:20;;;;;;;;;13.33;13.00;;;;;22.62;45.01;100925.28;110289;1264;21519;-49
2022/05/31 08:41:48;;;;;;;;;14.00;13.00;;;;;22.59;44.93;100924.27;110286;1262;19701;-48
2022/05/31 08:44:15;;;;;;;;;9.67;9.33;;;;;22.56;44.85;100931.86;110346;1264;20228;-55
2022/05/31 08:46:42;;;;;;;;;15.50;13.50;;;;;22.48;44.17;100930.55;110300;1262;19259;-49
2022/05/31 08:49:09;;;;;;;;;13.00;11.00;;;;;22.48;44.68;100935.04;110274;1264;21727;-52
2022/05/31 08:51:55;;;;;;;;;10.00;10.00;;;;;22.48;44.69;100934.96;110246;1264;20331;-50
2022/05/31 08:57:07;;;;;;;;;11.00;10.00;;;;;22.48;44.27;100939.90;110249;1264;19523;-47
2022/05/31 08:59:35;;;;;;;;;11.00;10.00;;;;;22.47;43.74;100939.85;110268;1265;22451;-50
2022/05/31 09:02:02;;;;;;;;;9.00;8.00;;;;;22.43;43.90;100939.71;110319;1264;23164;-54
2022/05/31 09:04:29;;;;;;;;;11.00;10.00;;;;;22.44;44.06;100938.96;110258;1264;20839;-49
2022/05/31 09:06:56;;;;;;;;;8.00;7.67;;;;;22.42;44.01;100942.55;110268;1264;22697;-50
2022/05/31 09:09:24;;;;;;;;;10.67;9.00;;;;;22.41;43.90;100941.43;110265;1264;23597;-50
2022/05/31 09:11:51;;;;;;;;;10.00;7.00;;;;;22.43;43.67;100936.85;110248;1264;22936;-50
2022/05/31 09:14:18;;;;;;;;;10.00;10.00;;;;;22.46;43.36;100938.80;110287;1264;20263;-49
2022/05/31 09:16:46;;;;;;;;;10.33;9.00;;;;;22.48;43.41;100932.77;110272;1263;20661;-48
2022/05/31 09:19:13;;;;;;;;;7.00;7.00;;;;;22.52;43.40;100931.41;110262;1262;19527;-47
2022/05/31 09:21:40;;;;;;;;;9.00;9.00;;;;;22.53;43.70;100931.98;110281;1263;20523;-49
2022/05/31 09:24:07;;;;;;;;;10.67;10.67;;;;;22.57;43.75;100934.16;110264;1264;19093;-48
2022/05/31 09:26:35;;;;;;;;;7.00;7.00;;;;;22.58;44.02;100933.02;110291;1264;19673;-47
2022/05/31 09:29:02;;;;;;;;;10.33;9.33;;;;;22.61;44.10;100929.77;110296;1264;20418;-48
2022/05/31 09:31:29;;;;;;;;;11.00;10.00;;;;;22.59;44.26;100930.11;110291;1264;20176;-48
2022/05/31 09:33:56;;;;;;;;;8.00;7.67;;;;;22.54;44.04;100936.98;110298;1263;19495;-48
2022/05/31 09:36:23;;;;;;;;;6.67;6.67;;;;;22.48;43.87;100936.42;110270;1264;23078;-48
2022/05/31 09:38:51;;;;;;;;;7.00;7.00;;;;;22.42;43.49;100934.91;110279;1264;23039;-48
2022/05/31 09:41:18;;;;;;;;;7.00;7.00;;;;;22.42;43.95;100934.02;110228;1264;19330;-48
2022/05/31 09:43:45;;;;;;;;;7.00;7.00;;;;;22.45;45.10;100933.65;110205;1264;21804;-49
2022/05/31 09:46:12;;;;;;;;;10.00;10.00;;;;;22.51;46.10;100930.73;110180;1262;19944;-48
2022/05/31 09:48:40;;;;;;;;;9.00;9.00;;;;;22.57;46.45;100928.18;110180;1264;19786;-48
2022/05/31 09:51:07;;;;;;;;;9.00;9.00;;;;;22.60;46.60;100926.56;110178;1262;20364;-48
2022/05/31 09:59:04;;;;;;;;;287.75;243.00;;;;;22.72;47.36;100925.36;110124;1264;20293;-52
2022/05/31 10:01:31;;;;;;;;;1122.67;1093.67;;;;;22.73;47.14;100923.40;110178;1263;24122;-48
2022/05/31 10:03:59;;;;;;;;;4388.50;4388.50;;;;;22.71;47.06;100919.67;110167;1264;19781;-47
2022/05/31 10:06:27;;;;;;;;;3586.67;3575.67;;;;;22.71;47.09;100918.06;110107;1264;22684;-49
2022/05/31 10:08:54;;;;;;;;;4397.50;4397.50;;;;;22.74;47.94;100922.95;110149;1264;19563;-47
2022/05/31 10:11:21;;;;;;;;;2086.00;2058.33;;;;;22.71;47.65;100921.44;110200;1263;20059;-48
2022/05/31 10:13:48;;;;;;;;;240.75;210.00;;;;;22.69;47.07;100921.11;110185;1264;20274;-46
2022/05/31 10:16:16;;;;;;;;;217.25;190.00;;;;;22.64;46.32;100920.90;110213;1264;22995;-49
2022/05/31 10:18:43;;;;;;;;;212.00;181.75;;;;;22.61;45.70;100927.75;110241;1264;19964;-47
2022/05/31 10:21:11;;;;;;;;;149.75;125.50;;;;;22.59;45.08;100930.83;110255;1263;21166;-47
2022/05/31 10:23:38;;;;;;;;;131.67;114.33;;;;;22.53;44.07;100929.80;110237;1263;19101;-47
2022/05/31 10:26:06;;;;;;;;;137.00;120.50;;;;;22.51;43.63;100932.65;110255;1264;19643;-49
2022/05/31 10:28:33;;;;;;;;;99.67;85.33;;;;;22.50;42.97;100932.86;110169;1265;20485;-48
2022/05/31 10:31:03;;;;;;;;;83.00;64.00;;;;;22.42;42.35;100931.50;110289;1264;19243;-48
2022/05/31 10:33:30;;;;;;;;;96.00;77.67;;;;;22.38;41.75;100932.52;110244;1264;22515;-51
2022/05/31 10:35:57;;;;;;;;;94.00;70.00;;;;;22.39;42.06;100930.53;110184;1263;20544;-47
2022/05/31 10:38:24;;;;;;;;;85.00;65.67;;;;;22.38;42.27;100929.61;110300;1264;19377;-51
2022/05/31 10:40:52;;;;;;;;;79.33;62.00;;;;;22.47;41.97;100927.67;110250;1264;19701;-48
2022/05/31 10:43:20;;;;;;;;;76.00;61.00;;;;;22.54;41.83;100932.21;110251;1264;21132;-49
2022/05/31 10:45:47;;;;;;;;;75.50;60.50;;;;;22.59;41.83;100929.27;110233;1264;19154;-49
2022/05/31 10:48:14;;;;;;;;;74.33;61.00;;;;;22.62;41.97;100932.31;110238;1264;19558;-50
2022/05/31 10:50:41;;;;;;;;;79.00;60.00;;;;;22.64;42.26;100927.11;110223;1263;20463;-50
2022/05/31 10:53:08;;;;;;;;;80.50;61.50;;;;;22.64;42.33;100926.37;110266;1264;19001;-49
2022/05/31 10:55:36;;;;;;;;;74.67;57.00;;;;;22.63;42.75;100923.98;110170;1264;21086;-51
2022/05/31 10:58:04;;;;;;;;;67.33;53.67;;;;;22.60;42.59;100932.77;110170;1264;20295;-51
2022/05/31 11:00:31;;;;;;;;;55.00;47.00;;;;;22.50;42.19;100931.21;110260;1264;22339;-47
2022/05/31 11:02:58;;;;;;;;;49.50;43.50;;;;;22.37;41.75;100929.83;110168;1263;23155;-50
2022/05/31 11:05:25;;;;;;;;;47.33;42.00;;;;;22.31;41.16;100925.20;110203;1265;20999;-50
2022/05/31 11:13:19;;;;;;;;;24.00;21.00;;;;;22.16;39.90;100921.86;110243;1264;20519;-50
2022/05/31 11:15:46;;;;;;;;;38.00;33.33;;;;;22.14;40.11;100918.94;110231;1264;19767;-49
2022/05/31 11:18:14;;;;;;;;;32.00;29.00;;;;;22.24;41.29;100923.24;110248;1264;20296;-49
2022/05/31 11:20:41;;;;;;;;;30.33;25.00;;;;;22.31;40.74;100920.55;110240;1264;20252;-50
2022/05/31 11:23:09;;;;;;;;;15.67;14.67;;;;;22.29;40.14;100923.42;110209;1264;19246;-51
2022/05/31 11:25:37;;;;;;;;;16.00;13.00;;;;;22.26;39.78;100921.34;110217;1264;23201;-48
2022/05/31 11:28:04;;;;;;;;;11.00;10.33;;;;;22.25;39.76;100922.95;110205;1264;20409;-50
2022/05/31 11:30:31;;;;;;;;;14.33;12.67;;;;;22.24;40.17;100921.81;110218;1264;19786;-48